• Join FlightAware (Why Join?)
  • Login
  • US Flag 
07:01AM EDT


 

Airport Tracker/Info


-or-


 

Live Flight TrackerFlight Track Log ✈ UAL1038 ✈ 18-Nov-2013 ✈ KAUS - KLAX

Flight Track Log - Related Links

Times and Time Zones

All times are in EST time to prevent confusion due to time zone crossing. See the UAL1038 flight status page for this flight to view local times or setup timezone preferences in your user account.

Time Position Orientation Groundspeed Altitude Reporting Facility
EST Latitude Longitude Course Direction KTS MPH feet Rate Location/Type
08:04AM 30.2331 -97.6821 352° North 183 211 1,900  Level FlightAware ADS-B
08:05AM 30.2434 -97.6836 353° North 200 230 2,200 1,380 Climbing FlightAware ADS-B
08:05AM 30.2495 -97.6850 349° North 209 241 2,300 660 Climbing FlightAware ADS-B
08:05AM 30.2524 -97.6862 340° North 213 245 2,300 960 Level FlightAware ADS-B
08:05AM 30.2553 -97.6878 335° Northwest 217 250 2,400 1,680 Climbing FlightAware ADS-B
08:05AM 30.2589 -97.6905 327° Northwest 221 254 2,500 1,800 Climbing FlightAware ADS-B
08:05AM 30.2649 -97.6978 314° West 229 264 2,800 2,280 Climbing FlightAware ADS-B
08:05AM 30.2672 -97.7020 302° West 231 266 3,000 2,520 Climbing FlightAware ADS-B
08:05AM 30.2686 -97.7055 295° West 232 267 3,100 2,520 Climbing FlightAware ADS-B
08:05AM 30.2699 -97.7102 288° West 235 270 3,300 2,520 Climbing FlightAware ADS-B
08:05AM 30.2706 -97.7141 282° West 237 273 3,400 2,520 Climbing FlightAware ADS-B
08:05AM 30.2712 -97.7188 278° West 238 274 3,600 2,520 Climbing FlightAware ADS-B
08:05AM 30.2721 -97.7318 275° West 244 281 4,000 1,800 Climbing FlightAware ADS-B
08:06AM 30.2733 -97.7451 276° West 257 296 4,200 1,680 Climbing FlightAware ADS-B
08:06AM 30.2754 -97.7667 276° West 275 316 4,700 2,400 Climbing FlightAware ADS-B
08:06AM 30.2773 -97.7855 277° West 278 320 5,300 2,820 Climbing FlightAware ADS-B
08:06AM 30.2786 -97.7947 279° West 279 321 5,600 3,240 Climbing FlightAware ADS-B
08:06AM 30.2823 -97.8169 281° West 275 316 6,500 3,600 Climbing FlightAware ADS-B
08:07AM 30.2863 -97.8390 282° West 275 316 7,400 3,540 Climbing FlightAware ADS-B
08:07AM 30.2896 -97.8564 282° West 273 314 8,100 3,420 Climbing FlightAware ADS-B
08:07AM 30.2930 -97.8761 281° West 272 313 8,900 2,760 Climbing FlightAware ADS-B
08:07AM 30.2967 -97.8984 281° West 279 321 9,500 2,280 Climbing FlightAware ADS-B
08:08AM 30.3034 -97.9386 281° West 291 335 10,500 1,800 Climbing FlightAware ADS-B
08:08AM 30.3110 -97.9869 280° West 322 371 11,200 1,080 Climbing FlightAware ADS-B
08:09AM 30.3199 -98.0416 281° West 355 409 11,600 1,140 Climbing FlightAware ADS-B
08:09AM 30.3300 -98.1021 281° West 379 436 12,400 1,980 Climbing FlightAware ADS-B
08:10AM 30.3400 -98.1637 281° West 383 441 13,700 2,400 Climbing FlightAware ADS-B
08:10AM 30.3501 -98.2260 281° West 384 442 14,900 2,100 Climbing FlightAware ADS-B
08:11AM 30.3615 -98.2962 281° West 394 453 16,000 2,040 Climbing FlightAware ADS-B
08:11AM 30.3725 -98.3643 281° West 398 458 17,200 1,800 Climbing FlightAware ADS-B
08:13AM 30.3914 -98.4828 281° West 400 460 19,000 1,560 Climbing Houston Center
08:14AM 30.4131 -98.6186 281° West 414 476 20,600 1,680 Climbing Houston Center
08:15AM 30.4342 -98.7525 280° West 425 489 22,500 1,740 Climbing Houston Center
08:16AM 30.4558 -98.8894 280° West 428 493 24,200 1,560 Climbing Houston Center
08:17AM 30.4875 -99.0258 285° West 434 499 25,700 1,860 Climbing Houston Center
08:18AM 30.5233 -99.1781 285° West 428 493 28,100 1,380 Climbing Houston Center
08:19AM 30.5528 -99.3089 285° West 423 487 28,600 900 Climbing Houston Center
08:20AM 30.5853 -99.4461 285° West 438 504 30,000 1,560 Climbing Houston Center
08:21AM 30.6161 -99.5781 285° West 429 494 31,800 960 Climbing Houston Center
08:22AM 30.6444 -99.7086 284° West 421 484 32,000  Climbing Houston Center
08:23AM 30.6753 -99.8408 285° West 424 488 31,900  Descending Houston Center
08:24AM 30.7047 -99.9722 285° West 423 487 32,000 660 Climbing Houston Center
08:25AM 30.7406 -100.1314 285° West 426 490 33,300 960 Climbing Houston Center
08:26AM 30.7694 -100.2608 285° West 419 482 34,000 300 Climbing Houston Center
08:27AM 30.7978 -100.3919 284° West 421 484 34,000  Level Houston Center
08:28AM 30.8278 -100.5228 285° West 421 484 34,000  Level Houston Center
08:29AM 30.8561 -100.6542 284° West 421 484 34,000  Level Houston Center
08:30AM 30.8844 -100.7836 284° West 416 479 34,000 -60 Level Houston Center
08:31AM 30.9139 -100.9117 285° West 413 475 33,900  Descending Houston Center
08:32AM 30.9458 -101.0675 283° West 413 475 34,000  Climbing Houston Center
08:33AM 30.9736 -101.1975 284° West 415 478 34,000  Level Houston Center
08:34AM 31.0011 -101.3244 284° West 410 472 34,000  Level Houston Center
08:35AM 31.0258 -101.4431 284° West 414 476 34,000  Level Houston Center
08:36AM 31.0542 -101.5744 284° West 417 480 34,000  Level Houston Center
08:37AM 31.0867 -101.7306 284° West 414 476 34,000  Level Houston Center
08:38AM 31.1144 -101.8622 284° West 416 479 34,000  Level Houston Center
08:39AM 31.1417 -101.9936 284° West 417 480 34,000 -60 Level Houston Center
08:40AM 31.1692 -102.1261 284° West 418 481 33,900  Descending Houston Center
08:41AM 31.2033 -102.2967 283° West 421 484 34,000  Climbing Albuquerque Center
08:42AM 31.2294 -102.4272 283° West 417 480 34,000  Level Albuquerque Center
08:43AM 31.2567 -102.5586 284° West 416 479 34,000  Level Albuquerque Center
08:44AM 31.2831 -102.6917 283° West 416 479 34,000  Level Albuquerque Center
08:45AM 31.3092 -102.8222 283° West 416 479 34,000  Level Albuquerque Center
08:46AM 31.3361 -102.9544 283° West 417 480 34,000  Level Albuquerque Center
08:47AM 31.3614 -103.0864 283° West 416 479 34,000  Level Albuquerque Center
08:48AM 31.3886 -103.2211 283° West 421 484 34,000  Level Albuquerque Center
08:49AM 31.4142 -103.3531 283° West 419 482 34,000  Level Albuquerque Center
08:50AM 31.4408 -103.4869 283° West 421 484 34,000  Level Albuquerque Center
08:51AM 31.4669 -103.6203 283° West 422 486 34,000  Level Albuquerque Center
08:53AM 31.4939 -103.7533 283° West 421 484 34,000 -60 Level Albuquerque Center
08:54AM 31.5183 -103.8797 283° West 417 480 33,900 -60 Descending Albuquerque Center
08:55AM 31.5431 -104.0106 283° West 415 478 33,900  Level Albuquerque Center
08:56AM 31.5675 -104.1411 282° West 413 475 34,000  Climbing Albuquerque Center
08:57AM 31.5928 -104.2719 283° West 413 475 34,000  Level Albuquerque Center
08:58AM 31.6219 -104.4292 282° West 413 475 34,000 -60 Level Albuquerque Center
08:59AM 31.6464 -104.5614 282° West 416 479 33,900  Descending Albuquerque Center
09:00AM 31.6731 -104.6947 283° West 420 483 34,000  Climbing Albuquerque Center
09:01AM 31.7078 -104.8267 287° West 424 488 34,000 -60 Level Albuquerque Center
09:02AM 31.7417 -104.9581 287° West 425 489 33,900  Descending Albuquerque Center
09:03AM 31.7747 -105.0897 286° West 424 488 34,000  Climbing Albuquerque Center
09:04AM 31.8086 -105.2219 287° West 424 488 34,000  Level Albuquerque Center
09:05AM 31.8417 -105.3561 286° West 428 493 34,000  Level Albuquerque Center
09:06AM 31.8747 -105.4881 286° West 425 489 34,000  Level Albuquerque Center
09:07AM 31.9061 -105.6178 286° West 417 480 34,000  Level Albuquerque Center
09:08AM 31.9397 -105.7492 287° West 418 481 34,000  Level Albuquerque Center
09:09AM 31.9708 -105.8797 286° West 417 480 34,000  Level Albuquerque Center
09:10AM 32.0092 -106.0331 286° West 422 486 34,000  Level Albuquerque Center
09:11AM 32.0411 -106.1667 286° West 423 487 34,000  Level Albuquerque Center
09:12AM 32.0739 -106.2997 286° West 424 488 34,000  Level Albuquerque Center
09:13AM 32.1061 -106.4325 286° West 423 487 34,000  Level Albuquerque Center
09:14AM 32.1369 -106.5678 285° West 426 490 34,000  Level Albuquerque Center
09:15AM 32.1703 -106.7031 286° West 429 494 34,000  Level Albuquerque Center
09:16AM 32.2025 -106.8400 286° West 431 496 34,000  Level Albuquerque Center
09:17AM 32.2372 -106.9878 286° West 435 501 34,000  Level Albuquerque Center
09:18AM 32.2697 -107.1228 286° West 431 496 34,000  Level Albuquerque Center
09:19AM 32.2967 -107.2469 284° West 434 499 34,000  Level Albuquerque Center
09:20AM 32.3272 -107.3836 285° West 433 498 34,000  Level Albuquerque Center
09:21AM 32.3619 -107.5319 286° West 430 495 34,000  Level Albuquerque Center
09:22AM 32.3936 -107.6706 285° West 433 498 34,000  Level Albuquerque Center
09:23AM 32.4247 -107.8100 285° West 436 502 34,000  Level Albuquerque Center
09:24AM 32.4597 -107.9633 285° West 438 504 34,000  Level Albuquerque Center
09:25AM 32.4908 -108.1033 285° West 440 506 34,000  Level Albuquerque Center
09:26AM 32.5231 -108.2431 285° West 440 506 34,000  Level Albuquerque Center
09:27AM 32.5542 -108.3828 285° West 439 505 34,000  Level Albuquerque Center
09:28AM 32.5847 -108.5225 285° West 438 504 34,000  Level Albuquerque Center
09:34AM 32.7809 -109.4214 285° West 445 512 34,000  Level FlightAware ADS-B (EPLB / LUZ)
09:35AM 32.7990 -109.5066 284° West 446 513 34,000  Level FlightAware ADS-B (EPLB / LUZ)
09:35AM 32.8140 -109.5772 284° West 446 513 34,000  Level FlightAware ADS-B (EPLB / LUZ)
09:36AM 32.8270 -109.6387 284° West 443 510 34,000  Level FlightAware ADS-B (EPLB / LUZ)
09:36AM 32.8484 -109.7401 284° West 440 506 34,000  Level FlightAware ADS-B (EPLB / LUZ)
09:37AM 32.8661 -109.8246 284° West 440 506 34,000  Level FlightAware ADS-B (EPLB / LUZ)
09:38AM 32.8726 -109.8555 284° West 440 506 34,000  Level FlightAware ADS-B (EPLB / LUZ)
09:38AM 32.9024 -109.9991 284° West 440 506 34,000  Level FlightAware ADS-B (EPLB / LUZ)
09:39AM 32.9217 -110.0928 284° West 440 506 34,000  Level FlightAware ADS-B (EPLB / LUZ)
09:40AM 32.9411 -110.1792 284° West 439 505 34,000  Level Los Angeles Center
09:41AM 32.9694 -110.3192 284° West 436 502 34,000  Level Los Angeles Center
09:42AM 32.9981 -110.4600 284° West 437 503 34,000  Level Los Angeles Center
09:43AM 33.0331 -110.6306 284° West 442 509 34,000  Level Los Angeles Center
09:44AM 33.0608 -110.7728 283° West 442 509 34,000  Level Los Angeles Center
09:45AM 33.0900 -110.9147 284° West 441 507 34,000  Level Los Angeles Center
09:50AM 33.2259 -111.6134 284° West 433 498 34,000  Level FlightAware ADS-B (EPLB / LUZ)
09:50AM 33.2392 -111.6750 284° West 432 497 34,000  Level Albuquerque Center
09:51AM 33.2658 -111.8153 283° West 432 497 34,000  Level Albuquerque Center
09:52AM 33.2956 -111.9528 285° West 428 493 34,000  Level Albuquerque Center
09:53AM 33.3378 -112.0847 291° West 423 487 34,000  Level Albuquerque Center
09:54AM 33.3781 -112.2172 290° West 424 488 34,000  Level Albuquerque Center
09:55AM 33.4192 -112.3517 290° West 427 491 34,000  Level Albuquerque Center
09:56AM 33.4597 -112.4858 290° West 428 493 34,000  Level Albuquerque Center
09:57AM 33.5008 -112.6208 290° West 428 493 34,000  Level Albuquerque Center
09:58AM 33.5417 -112.7561 290° West 429 494 34,000  Level Albuquerque Center
09:59AM 33.5828 -112.8933 290° West 434 499 34,000  Level Albuquerque Center
10:00AM 33.6317 -113.0572 290° West 437 503 34,000  Level Albuquerque Center
10:02AM 33.6731 -113.1967 290° West 439 505 34,000  Level Albuquerque Center
10:03AM 33.7142 -113.3342 290° West 438 504 34,000  Level Albuquerque Center
10:04AM 33.7553 -113.4711 290° West 437 503 34,000  Level Albuquerque Center
10:05AM 33.7947 -113.6089 289° West 436 502 34,000  Level Albuquerque Center
10:06AM 33.8336 -113.7453 289° West 433 498 34,000  Level Albuquerque Center
10:07AM 33.8664 -113.8847 286° West 433 498 34,000  Level Albuquerque Center
10:08AM 33.8844 -114.0269 279° West 431 496 34,000  Level Albuquerque Center
10:09AM 33.9058 -114.1686 280° West 432 497 34,000  Level Albuquerque Center
10:10AM 33.9264 -114.3339 279° West 430 495 34,000  Level Albuquerque Center
10:11AM 33.9461 -114.4744 280° West 429 494 34,000  Level Albuquerque Center
10:12AM 33.9683 -114.6372 279° West 428 493 34,000 -60 Level Los Angeles Center
10:13AM 33.9906 -114.8067 279° West 428 493 33,900 -420 Descending Los Angeles Center
10:17AM 34.0703 -115.4320 279° West 428 493 32,000 -420 Descending FlightAware ADS-B
10:19AM 34.1051 -115.7120 279° West 429 494 31,500 -480 Descending FlightAware ADS-B
10:21AM 34.0793 -115.9934 264° West 420 483 30,200 -720 Descending FlightAware ADS-B
10:22AM 34.0659 -116.0829 260° West 414 476 29,600 -960 Descending FlightAware ADS-B
10:23AM 34.0516 -116.1784 260° West 409 471 28,900 -1,140 Descending FlightAware ADS-B
10:23AM 34.0419 -116.2427 260° West 406 467 28,300 -1,140 Descending FlightAware ADS-B
10:24AM 34.0324 -116.3057 260° West 405 466 27,800 -1,020 Descending FlightAware ADS-B
10:24AM 34.0223 -116.3719 260° West 400 460 27,300 -1,020 Descending FlightAware ADS-B
10:25AM 34.0120 -116.4396 260° West 394 453 26,800 -1,020 Descending FlightAware ADS-B
10:25AM 34.0035 -116.5099 262° West 390 449 26,300 -1,560 Descending FlightAware ADS-B
10:26AM 33.9918 -116.6543 264° West 373 429 24,200 -1,920 Descending FlightAware ADS-B
10:27AM 33.9853 -116.7358 265° West 363 418 22,900 -1,860 Descending FlightAware ADS-B
10:27AM 33.9846 -116.7438 264° West 362 417 22,800 -1,500 Descending FlightAware ADS-B
10:27AM 33.9828 -116.7672 265° West 360 414 22,500 -2,100 Descending FlightAware ADS-B
10:28AM 33.9773 -116.8336 264° West 354 407 21,300 -1,920 Descending FlightAware ADS-B
10:28AM 33.9726 -116.8925 264° West 348 400 20,500 -1,800 Descending FlightAware ADS-B
10:29AM 33.9678 -116.9500 264° West 343 395 19,500 -1,800 Descending FlightAware ADS-B
10:30AM 33.9614 -117.0246 264° West 342 394 18,400 -1,920 Descending FlightAware ADS-B
10:30AM 33.9551 -117.1013 264° West 349 402 17,000 -1,200 Descending FlightAware ADS-B
10:31AM 33.9484 -117.1820 264° West 346 398 16,800 -900 Descending FlightAware ADS-B
10:31AM 33.9438 -117.2359 264° West 339 390 16,000 -1,560 Descending FlightAware ADS-B
10:32AM 33.9371 -117.3133 264° West 332 382 15,000 -1,500 Descending FlightAware ADS-B
10:33AM 33.9341 -117.3587 265° West 332 382 14,300 -1,980 Descending FlightAware ADS-B
10:33AM 33.9354 -117.3755 275° West 332 382 13,900 -2,040 Descending FlightAware ADS-B
10:33AM 33.9390 -117.3932 284° West 331 381 13,700 -1,680 Descending FlightAware ADS-B
10:34AM 33.9634 -117.4630 293° West 332 382 12,500 -1,860 Descending FlightAware ADS-B
10:34AM 33.9850 -117.5238 293° West 329 379 11,300 -1,800 Descending FlightAware ADS-B
10:35AM 34.0053 -117.5811 293° West 327 376 10,400 -1,200 Descending FlightAware ADS-B
10:35AM 34.0119 -117.6276 280° West 303 349 10,100 -660 Descending FlightAware ADS-B
10:35AM 34.0092 -117.6575 264° West 289 333 9,900 -600 Descending FlightAware ADS-B
10:36AM 34.0042 -117.7092 263° West 276 318 9,600 -720 Descending FlightAware ADS-B
10:36AM 34.0014 -117.7394 264° West 275 316 9,300 -1,200 Descending FlightAware ADS-B
10:37AM 33.9979 -117.7752 263° West 279 321 8,800 -1,260 Descending FlightAware ADS-B
10:37AM 33.9949 -117.8077 264° West 279 321 8,400 -1,260 Descending FlightAware ADS-B
10:38AM 33.9899 -117.8546 263° West 273 314 7,700 -1,260 Descending FlightAware ADS-B
10:38AM 33.9875 -117.8790 263° West 272 313 7,400 -1,140 Descending FlightAware ADS-B
10:39AM 33.9823 -117.9359 264° West 280 322 6,700 -1,080 Descending FlightAware ADS-B
10:40AM 33.9667 -118.0333 264° West 278 320 5,600 -1,140 Descending Southern California TRACON
10:41AM 33.9667 -118.1333 270° West 272 313 4,400 -1,200 Descending Southern California TRACON
10:42AM 33.9500 -118.2167 256° West 258 297 3,300 -1,380 Descending Southern California TRACON
10:43AM 33.9500 -118.3000 270° West 228 262 1,700 -1,320 Descending Southern California TRACON
10:44AM 33.9333 -118.3500 248° West 165 190 700 -720 Descending Southern California TRACON
10:45AM 33.9336 -118.4206 270° West 180 207 100 -480 Descending Los Angeles Center